Time,TemperatureF,DewpointF,PressureIn,WindDirection,WindDirectionDegrees,WindSpeedMPH,WindSpeedGustMPH,Humidity,HourlyPrecipIn,Conditions,Clouds,dailyrainin,SolarRadiationWatts/m^2,SoftwareType,DateUTC
2013-01-01 00:00:00,23.0,14.0,-100.00,NW,315,9.0,-999.0,68,-99.99,,,-99.99,0.000000,,2013-01-01 05:00:00,
2013-01-01 00:33:00,23.0,14.0,-100.00,NW,315,9.0,-999.0,68,-99.99,,,-99.99,0.000000,,2013-01-01 05:33:00,
2013-01-01 00:42:00,23.0,14.0,-100.00,NW,315,9.0,-999.0,68,-99.99,,,-99.99,0.000000,,2013-01-01 05:42:00,
2013-01-01 00:53:00,23.0,14.0,-100.00,NW,315,9.0,-999.0,68,-99.99,,,-99.99,0.000000,,2013-01-01 05:53:00,
2013-01-01 01:00:00,23.0,15.0,-100.00,NW,315,7.0,-999.0,71,-99.99,,,-99.99,0.000000,,2013-01-01 06:00:00,
2013-01-01 01:43:00,23.0,15.0,-100.00,NW,315,7.0,-999.0,71,-99.99,,,-99.99,0.000000,,2013-01-01 06:43:00,
2013-01-01 01:52:00,23.0,15.0,-100.00,NW,315,7.0,-999.0,71,-99.99,,,-99.99,0.000000,,2013-01-01 06:52:00,
2013-01-01 02:00:00,22.0,16.0,-100.00,WNW,292,5.0,-999.0,76,-99.99,,,-99.99,0.000000,,2013-01-01 07:00:00,
2013-01-01 02:42:00,22.0,16.0,-100.00,WNW,292,5.0,-999.0,76,-99.99,,,-99.99,0.000000,,2013-01-01 07:42:00,
2013-01-01 02:53:00,22.0,16.0,-100.00,WNW,292,5.0,-999.0,76,-99.99,,,-99.99,0.000000,,2013-01-01 07:53:00,
2013-01-01 03:00:00,22.0,14.0,-100.00,NW,315,7.0,-999.0,72,-99.99,,,-99.99,0.000000,,2013-01-01 08:00:00,
2013-01-01 03:42:00,22.0,14.0,-100.00,NW,315,7.0,-999.0,72,-99.99,,,-99.99,0.000000,,2013-01-01 08:42:00,
2013-01-01 03:53:00,22.0,14.0,-100.00,NW,315,7.0,-999.0,72,-99.99,,,-99.99,0.000000,,2013-01-01 08:53:00,
2013-01-01 04:00:00,21.0,13.0,-100.00,NW,315,7.0,-999.0,68,-99.99,,,-99.99,0.000000,,2013-01-01 09:00:00,
2013-01-01 04:42:00,21.0,13.0,-100.00,NW,315,7.0,-999.0,68,-99.99,,,-99.99,0.000000,,2013-01-01 09:42:00,
2013-01-01 04:52:00,21.0,13.0,-100.00,NW,315,7.0,-999.0,68,-99.99,,,-99.99,0.000000,,2013-01-01 09:52:00,
2013-01-01 05:00:00,20.0,11.0,-100.00,WNW,292,7.0,-999.0,66,-99.99,,,-99.99,0.000000,,2013-01-01 10:00:00,
2013-01-01 05:43:00,20.0,11.0,-100.00,WNW,292,7.0,-999.0,66,-99.99,,,-99.99,0.000000,,2013-01-01 10:43:00,
2013-01-01 05:53:00,20.0,11.0,-100.00,WNW,292,7.0,-999.0,66,-99.99,,,-99.99,0.000000,,2013-01-01 10:53:00,
2013-01-01 06:00:00,20.0,11.0,-100.00,WNW,292,6.0,-999.0,66,-99.99,,,-99.99,0.000000,,2013-01-01 11:00:00,
2013-01-01 06:43:00,20.0,11.0,-100.00,WNW,292,6.0,-999.0,66,-99.99,,,-99.99,0.000000,,2013-01-01 11:43:00,
2013-01-01 06:53:00,20.0,11.0,-100.00,WNW,292,6.0,-999.0,66,-99.99,,,-99.99,0.000000,,2013-01-01 11:53:00,
2013-01-01 07:00:00,20.0,11.0,-100.00,WNW,292,7.0,-999.0,68,-99.99,,,-99.99,0.000000,,2013-01-01 12:00:00,
2013-01-01 07:33:00,20.0,11.0,-100.00,WNW,292,7.0,-999.0,68,-99.99,,,-99.99,0.000000,,2013-01-01 12:33:00,
2013-01-01 07:43:00,20.0,11.0,-100.00,WNW,292,7.0,-999.0,68,-99.99,,,-99.99,0.000000,,2013-01-01 12:43:00,
2013-01-01 07:53:00,20.0,11.0,-100.00,WNW,292,7.0,-999.0,68,-99.99,,,-99.99,0.000000,,2013-01-01 12:53:00,
2013-01-01 08:00:00,19.0,12.0,-100.00,WNW,292,6.0,-999.0,70,-99.99,,,-99.99,0.000000,,2013-01-01 13:00:00,
2013-01-01 08:43:00,19.0,12.0,-100.00,WNW,292,6.0,-999.0,70,-99.99,,,-99.99,0.000000,,2013-01-01 13:43:00,
2013-01-01 08:53:00,19.0,12.0,-100.00,WNW,292,6.0,-999.0,70,-99.99,,,-99.99,0.000000,,2013-01-01 13:53:00,
2013-01-01 09:00:00,20.0,12.0,-100.00,West,270,7.0,-999.0,72,-99.99,,,-99.99,15.080000,,2013-01-01 14:00:00,
2013-01-01 09:33:00,20.0,12.0,-100.00,West,270,7.0,-999.0,72,-99.99,,,-99.99,15.080000,,2013-01-01 14:33:00,
2013-01-01 09:43:00,20.0,12.0,-100.00,West,270,7.0,-999.0,72,-99.99,,,-99.99,15.080000,,2013-01-01 14:43:00,
2013-01-01 09:53:00,20.0,12.0,-100.00,West,270,7.0,-999.0,72,-99.99,,,-99.99,15.080000,,2013-01-01 14:53:00,
2013-01-01 10:00:00,21.0,12.0,-100.00,West,270,8.0,-999.0,70,-99.99,,,-99.99,70.760002,,2013-01-01 15:00:00,
2013-01-01 10:33:00,21.0,12.0,-100.00,West,270,8.0,-999.0,70,-99.99,,,-99.99,70.760002,,2013-01-01 15:33:00,
2013-01-01 10:43:00,21.0,12.0,-100.00,West,270,8.0,-999.0,70,-99.99,,,-99.99,70.760002,,2013-01-01 15:43:00,
2013-01-01 10:53:00,21.0,12.0,-100.00,West,270,8.0,-999.0,70,-99.99,,,-99.99,70.760002,,2013-01-01 15:53:00,
2013-01-01 11:00:00,22.0,12.0,-100.00,WNW,292,7.0,-999.0,65,-99.99,,,-99.99,125.279999,,2013-01-01 16:00:00,
2013-01-01 11:33:00,22.0,12.0,-100.00,WNW,292,7.0,-999.0,65,-99.99,,,-99.99,125.279999,,2013-01-01 16:33:00,
2013-01-01 11:43:00,22.0,12.0,-100.00,WNW,292,7.0,-999.0,65,-99.99,,,-99.99,125.279999,,2013-01-01 16:43:00,
2013-01-01 11:53:00,22.0,12.0,-100.00,WNW,292,7.0,-999.0,65,-99.99,,,-99.99,125.279999,,2013-01-01 16:53:00,
2013-01-01 12:00:00,23.0,11.0,-100.00,WNW,292,6.0,-999.0,61,-99.99,,,-99.99,172.839996,,2013-01-01 17:00:00,
2013-01-01 12:33:00,23.0,11.0,-100.00,WNW,292,6.0,-999.0,61,-99.99,,,-99.99,172.839996,,2013-01-01 17:33:00,
2013-01-01 12:43:00,23.0,11.0,-100.00,WNW,292,6.0,-999.0,61,-99.99,,,-99.99,172.839996,,2013-01-01 17:43:00,
2013-01-01 12:53:00,23.0,11.0,-100.00,WNW,292,6.0,-999.0,61,-99.99,,,-99.99,172.839996,,2013-01-01 17:53:00,
2013-01-01 13:00:00,23.0,11.0,-100.00,WNW,292,6.0,-999.0,59,-99.99,,,-99.99,151.960007,,2013-01-01 18:00:00,
2013-01-01 13:33:00,23.0,11.0,-100.00,WNW,292,6.0,-999.0,59,-99.99,,,-99.99,151.960007,,2013-01-01 18:33:00,
2013-01-01 13:43:00,23.0,11.0,-100.00,WNW,292,6.0,-999.0,59,-99.99,,,-99.99,151.960007,,2013-01-01 18:43:00,
2013-01-01 13:53:00,23.0,11.0,-100.00,WNW,292,6.0,-999.0,59,-99.99,,,-99.99,151.960007,,2013-01-01 18:53:00,
2013-01-01 14:00:00,23.0,11.0,-100.00,WNW,292,7.0,-999.0,57,-99.99,,,-99.99,157.759995,,2013-01-01 19:00:00,
2013-01-01 14:43:00,23.0,11.0,-100.00,WNW,292,7.0,-999.0,57,-99.99,,,-99.99,157.759995,,2013-01-01 19:43:00,
2013-01-01 14:53:00,23.0,11.0,-100.00,WNW,292,7.0,-999.0,57,-99.99,,,-99.99,157.759995,,2013-01-01 19:53:00,
2013-01-01 15:00:00,23.0,10.0,-100.00,West,270,6.0,-999.0,56,-99.99,,,-99.99,135.720001,,2013-01-01 20:00:00,
2013-01-01 15:43:00,23.0,10.0,-100.00,West,270,6.0,-999.0,56,-99.99,,,-99.99,135.720001,,2013-01-01 20:43:00,
2013-01-01 15:53:00,23.0,10.0,-100.00,West,270,6.0,-999.0,56,-99.99,,,-99.99,135.720001,,2013-01-01 20:53:00,
2013-01-01 16:00:00,23.0,11.0,-100.00,West,270,8.0,-999.0,58,-99.99,,,-99.99,85.839996,,2013-01-01 21:00:00,
2013-01-01 16:43:00,23.0,11.0,-100.00,West,270,8.0,-999.0,58,-99.99,,,-99.99,85.839996,,2013-01-01 21:43:00,
2013-01-01 16:53:00,23.0,11.0,-100.00,West,270,8.0,-999.0,58,-99.99,,,-99.99,85.839996,,2013-01-01 21:53:00,
2013-01-01 17:00:00,23.0,11.0,-100.00,WSW,247,10.0,-999.0,61,-99.99,,,-99.99,23.200001,,2013-01-01 22:00:00,
2013-01-01 17:43:00,23.0,11.0,-100.00,WSW,247,10.0,-999.0,61,-99.99,,,-99.99,23.200001,,2013-01-01 22:43:00,
2013-01-01 17:53:00,23.0,11.0,-100.00,WSW,247,10.0,-999.0,61,-99.99,,,-99.99,23.200001,,2013-01-01 22:53:00,
2013-01-01 18:00:00,22.0,12.0,-100.00,WSW,247,9.0,-999.0,63,-99.99,,,-99.99,1.160000,,2013-01-01 23:00:00,
2013-01-01 18:33:00,22.0,12.0,-100.00,WSW,247,9.0,-999.0,63,-99.99,,,-99.99,1.160000,,2013-01-01 23:33:00,
2013-01-01 18:42:00,22.0,12.0,-100.00,WSW,247,9.0,-999.0,63,-99.99,,,-99.99,1.160000,,2013-01-01 23:42:00,
2013-01-01 18:53:00,22.0,12.0,-100.00,WSW,247,9.0,-999.0,63,-99.99,,,-99.99,1.160000,,2013-01-01 23:53:00,
2013-01-01 19:00:00,22.0,11.0,-100.00,WSW,247,10.0,-999.0,63,-99.99,,,-99.99,0.000000,,2013-01-02 00:00:00,
2013-01-01 19:43:00,22.0,11.0,-100.00,WSW,247,10.0,-999.0,63,-99.99,,,-99.99,0.000000,,2013-01-02 00:43:00,
2013-01-01 19:53:00,22.0,11.0,-100.00,WSW,247,10.0,-999.0,63,-99.99,,,-99.99,0.000000,,2013-01-02 00:53:00,
2013-01-01 20:00:00,21.0,10.0,-100.00,WSW,247,9.0,-999.0,64,-99.99,,,-99.99,0.000000,,2013-01-02 01:00:00,
2013-01-01 20:33:00,21.0,10.0,-100.00,WSW,247,9.0,-999.0,64,-99.99,,,-99.99,0.000000,,2013-01-02 01:33:00,
2013-01-01 20:42:00,21.0,10.0,-100.00,WSW,247,9.0,-999.0,64,-99.99,,,-99.99,0.000000,,2013-01-02 01:42:00,
2013-01-01 20:53:00,21.0,10.0,-100.00,WSW,247,9.0,-999.0,64,-99.99,,,-99.99,0.000000,,2013-01-02 01:53:00,
2013-01-01 21:00:00,20.0,11.0,-100.00,WSW,247,6.0,-999.0,68,-99.99,,,-99.99,0.000000,,2013-01-02 02:00:00,
2013-01-01 21:32:00,20.0,11.0,-100.00,WSW,247,6.0,-999.0,68,-99.99,,,-99.99,0.000000,,2013-01-02 02:32:00,
2013-01-01 21:43:00,20.0,11.0,-100.00,WSW,247,6.0,-999.0,68,-99.99,,,-99.99,0.000000,,2013-01-02 02:43:00,
2013-01-01 21:53:00,20.0,11.0,-100.00,WSW,247,6.0,-999.0,68,-99.99,,,-99.99,0.000000,,2013-01-02 02:53:00,
2013-01-01 22:00:00,18.0,10.0,-100.00,WSW,247,12.0,-999.0,70,-99.99,,,-99.99,0.000000,,2013-01-02 03:00:00,
2013-01-01 22:42:00,18.0,10.0,-100.00,WSW,247,12.0,-999.0,70,-99.99,,,-99.99,0.000000,,2013-01-02 03:42:00,
2013-01-01 22:53:00,18.0,10.0,-100.00,WSW,247,12.0,-999.0,70,-99.99,,,-99.99,0.000000,,2013-01-02 03:53:00,
2013-01-01 23:00:00,17.0,10.0,-100.00,WSW,247,10.0,-999.0,73,-99.99,,,-99.99,0.000000,,2013-01-02 04:00:00,
2013-01-01 23:33:00,17.0,10.0,-100.00,WSW,247,10.0,-999.0,73,-99.99,,,-99.99,0.000000,,2013-01-02 04:33:00,
2013-01-01 23:42:00,17.0,10.0,-100.00,WSW,247,10.0,-999.0,73,-99.99,,,-99.99,0.000000,,2013-01-02 04:42:00,
2013-01-01 23:53:00,17.0,10.0,-100.00,WSW,247,10.0,-999.0,73,-99.99,,,-99.99,0.000000,,2013-01-02 04:53:00,